Aérodrome :
LOGIN :

S'inscrire | Disclaimer

   EN    FR    IT 

 










Légende :    VFR   VFR Marginal   IFR   IFR Intensif   IFR Très Intensif
Visi : 
Plafond : 
>= 8 km
>= 3000ft
5 à 8 km
1000 à 3000 ft
1500m à 5 km
500 à 1000 ft
800 à 1500m
200 à 500 ft
< 800m
< 200 ft
Symboles :   Orages  Brouillard  Fortes neiges  Fortes précipitations  Vent > 20 kt
SIGMETs :   Divers  Orages  Givrage  Turbulence  Onde Orograph.  Cendres Volcan.






- Altitude de l'aérodrome : 1959 ft
- Code IATA : HOQ


EDQM - Hof Plauen

DERNIER METAR :
  • 211450Z 25011KT 210V280 9999 FEW040 04/M02 Q1025

METARs EXPIRÉS :
  • 211420Z 26014KT 9999 FEW037 04/M02 Q1025
  • 211350Z 25012KT 220V280 9999 SCT037 04/M01 Q1025
  • 211320Z 25014KT 210V270 9999 SCT033 03/M01 Q1025
  • 211250Z 25014KT 9999 SCT026 03/M01 Q1025
  • 211220Z 25012KT 9999 SCT039 04/M00 Q1025

TAF TAF EDQM
Valide du 21 à 15h jusqu'au 22 à 00h UTC


211400Z 2115/2124 25015KT 9999 SCT030
BECMG 2116/2118 24007KT
BECMG 2122/2124 25012KT



MET'MAP, la Météo Aéronautique d'un coup d'oeil ! - Copyright ORBIFLY Décembre 2007 - Disclaimer

ORBIFLY MET'MAP TEAM :

Programmation & Développement : Alexandra Zaïnal
Sur une idée originale de : Baudouin d'Aumeries
Assistance à la programmation : Marc-Olivier Méhu
Soutien technique & logistique : Manuel Goepfert

Contact : metmap@orbifly.com




SOURCES & CREDITS :

   NOAA